<?xml version="1.0" encoding="UTF-8"?>
<gpx version="1.1" creator="https://www.youtrack.es" xsi:schemaLocation="http://www.topografix.com/GPX/1/1 http://www.topografix.com/GPX/1/1/gpx.xsd http://www.garmin.com/xmlschemas/GpxExtensions/v3 http://www.garmin.com/xmlschemas/GpxExtensionsv3.xsd http://www.garmin.com/xmlschemas/TrackPointExtension/v1 http://www.garmin.com/xmlschemas/TrackPointExtensionv1.xsd" xmlns:gpxtpx="http://www.garmin.com/xmlschemas/TrackPointExtension/v1" xmlns:gpxx="http://www.garmin.com/xmlschemas/GpxExtensions/v3" xmlns:xsi="http://www.w3.org/2001/XMLSchema-instance">
  <metadata>
    <link href="https://www.youtrack.es">
      <text>YouTrack.es</text>
    </link>
    <time>2026-05-08T04:13:57Z</time>
  </metadata>
  <trk>
    <src>https://www.youtrack.es</src>
    <link href="https://www.youtrack.es/ruta/18098-faedo-de-cinera-01">
      <text>YouTrack.es</text>
    </link>
    <trkseg>
      <trkpt lat="42.8837" lon="-5.635738">
        <ele>1091.6</ele>
        <time>2014-07-13T09:49:29Z</time>
      </trkpt>
      <trkpt lat="42.8837" lon="-5.635738">
        <ele>1077.0</ele>
        <time>2014-07-13T09:49:32Z</time>
      </trkpt>
      <trkpt lat="42.883872" lon="-5.635772">
        <ele>1073.9</ele>
        <time>2014-07-13T09:49:48Z</time>
      </trkpt>
      <trkpt lat="42.883937" lon="-5.635622">
        <ele>1073.3</ele>
        <time>2014-07-13T09:50:01Z</time>
      </trkpt>
      <trkpt lat="42.883975" lon="-5.63539">
        <ele>1074.2</ele>
        <time>2014-07-13T09:50:16Z</time>
      </trkpt>
      <trkpt lat="42.883993" lon="-5.635185">
        <ele>1074.0</ele>
        <time>2014-07-13T09:50:30Z</time>
      </trkpt>
      <trkpt lat="42.884073" lon="-5.635">
        <ele>1072.1</ele>
        <time>2014-07-13T09:50:43Z</time>
      </trkpt>
      <trkpt lat="42.88415" lon="-5.634802">
        <ele>1071.4</ele>
        <time>2014-07-13T09:51:00Z</time>
      </trkpt>
      <trkpt lat="42.884208" lon="-5.634513">
        <ele>1070.0</ele>
        <time>2014-07-13T09:51:16Z</time>
      </trkpt>
      <trkpt lat="42.884233" lon="-5.634315">
        <ele>1068.8</ele>
        <time>2014-07-13T09:51:30Z</time>
      </trkpt>
      <trkpt lat="42.884313" lon="-5.634003">
        <ele>1069.3</ele>
        <time>2014-07-13T09:51:47Z</time>
      </trkpt>
      <trkpt lat="42.884368" lon="-5.633767">
        <ele>1068.7</ele>
        <time>2014-07-13T09:51:59Z</time>
      </trkpt>
      <trkpt lat="42.884438" lon="-5.633618">
        <ele>1067.3</ele>
        <time>2014-07-13T09:52:10Z</time>
      </trkpt>
      <trkpt lat="42.884407" lon="-5.633298">
        <ele>1066.1</ele>
        <time>2014-07-13T09:52:28Z</time>
      </trkpt>
      <trkpt lat="42.88432" lon="-5.63311">
        <ele>1066.6</ele>
        <time>2014-07-13T09:52:40Z</time>
      </trkpt>
      <trkpt lat="42.884207" lon="-5.63277">
        <ele>1065.8</ele>
        <time>2014-07-13T09:53:01Z</time>
      </trkpt>
      <trkpt lat="42.88423" lon="-5.632518">
        <ele>1063.4</ele>
        <time>2014-07-13T09:53:16Z</time>
      </trkpt>
      <trkpt lat="42.884247" lon="-5.632213">
        <ele>1064.0</ele>
        <time>2014-07-13T09:53:37Z</time>
      </trkpt>
      <trkpt lat="42.884358" lon="-5.631905">
        <ele>1066.8</ele>
        <time>2014-07-13T09:53:56Z</time>
      </trkpt>
      <trkpt lat="42.884302" lon="-5.631568">
        <ele>1069.5</ele>
        <time>2014-07-13T09:54:26Z</time>
      </trkpt>
      <trkpt lat="42.884253" lon="-5.63141">
        <ele>1073.2</ele>
        <time>2014-07-13T09:54:40Z</time>
      </trkpt>
      <trkpt lat="42.884155" lon="-5.631108">
        <ele>1077.2</ele>
        <time>2014-07-13T09:54:56Z</time>
      </trkpt>
      <trkpt lat="42.884122" lon="-5.630905">
        <ele>1081.5</ele>
        <time>2014-07-13T09:55:10Z</time>
      </trkpt>
      <trkpt lat="42.88412" lon="-5.630662">
        <ele>1086.2</ele>
        <time>2014-07-13T09:55:26Z</time>
      </trkpt>
      <trkpt lat="42.884203" lon="-5.630348">
        <ele>1088.2</ele>
        <time>2014-07-13T09:55:46Z</time>
      </trkpt>
      <trkpt lat="42.88417" lon="-5.630087">
        <ele>1090.3</ele>
        <time>2014-07-13T09:55:58Z</time>
      </trkpt>
      <trkpt lat="42.88416" lon="-5.62996">
        <ele>1094.8</ele>
        <time>2014-07-13T09:56:06Z</time>
      </trkpt>
      <trkpt lat="42.884353" lon="-5.629673">
        <ele>1097.2</ele>
        <time>2014-07-13T09:56:28Z</time>
      </trkpt>
      <trkpt lat="42.884173" lon="-5.629417">
        <ele>1098.6</ele>
        <time>2014-07-13T09:56:39Z</time>
      </trkpt>
      <trkpt lat="42.884078" lon="-5.629282">
        <ele>1102.1</ele>
        <time>2014-07-13T09:56:46Z</time>
      </trkpt>
      <trkpt lat="42.883908" lon="-5.628995">
        <ele>1104.7</ele>
        <time>2014-07-13T09:57:04Z</time>
      </trkpt>
      <trkpt lat="42.883888" lon="-5.628768">
        <ele>1106.1</ele>
        <time>2014-07-13T09:57:20Z</time>
      </trkpt>
      <trkpt lat="42.883972" lon="-5.628592">
        <ele>1108.0</ele>
        <time>2014-07-13T09:57:28Z</time>
      </trkpt>
      <trkpt lat="42.883978" lon="-5.628417">
        <ele>1110.2</ele>
        <time>2014-07-13T09:57:40Z</time>
      </trkpt>
      <trkpt lat="42.883942" lon="-5.628218">
        <ele>1113.3</ele>
        <time>2014-07-13T09:57:51Z</time>
      </trkpt>
      <trkpt lat="42.88391" lon="-5.627923">
        <ele>1115.8</ele>
        <time>2014-07-13T09:58:08Z</time>
      </trkpt>
      <trkpt lat="42.883857" lon="-5.627662">
        <ele>1117.6</ele>
        <time>2014-07-13T09:58:25Z</time>
      </trkpt>
      <trkpt lat="42.88397" lon="-5.627347">
        <ele>1119.9</ele>
        <time>2014-07-13T09:58:46Z</time>
      </trkpt>
      <trkpt lat="42.883972" lon="-5.627055">
        <ele>1120.4</ele>
        <time>2014-07-13T09:59:05Z</time>
      </trkpt>
      <trkpt lat="42.884013" lon="-5.626852">
        <ele>1121.3</ele>
        <time>2014-07-13T09:59:16Z</time>
      </trkpt>
      <trkpt lat="42.884073" lon="-5.626708">
        <ele>1121.4</ele>
        <time>2014-07-13T09:59:28Z</time>
      </trkpt>
      <trkpt lat="42.883877" lon="-5.626398">
        <ele>1122.2</ele>
        <time>2014-07-13T09:59:46Z</time>
      </trkpt>
      <trkpt lat="42.883845" lon="-5.626245">
        <ele>1120.9</ele>
        <time>2014-07-13T09:59:58Z</time>
      </trkpt>
      <trkpt lat="42.883865" lon="-5.625953">
        <ele>1120.6</ele>
        <time>2014-07-13T10:00:13Z</time>
      </trkpt>
      <trkpt lat="42.884002" lon="-5.625647">
        <ele>1119.4</ele>
        <time>2014-07-13T10:00:28Z</time>
      </trkpt>
      <trkpt lat="42.884082" lon="-5.625442">
        <ele>1119.5</ele>
        <time>2014-07-13T10:00:42Z</time>
      </trkpt>
      <trkpt lat="42.88408" lon="-5.62517">
        <ele>1119.6</ele>
        <time>2014-07-13T10:00:57Z</time>
      </trkpt>
      <trkpt lat="42.884048" lon="-5.624957">
        <ele>1119.2</ele>
        <time>2014-07-13T10:01:07Z</time>
      </trkpt>
      <trkpt lat="42.884055" lon="-5.624828">
        <ele>1118.2</ele>
        <time>2014-07-13T10:01:15Z</time>
      </trkpt>
      <trkpt lat="42.884142" lon="-5.624513">
        <ele>1117.8</ele>
        <time>2014-07-13T10:01:34Z</time>
      </trkpt>
      <trkpt lat="42.884143" lon="-5.624317">
        <ele>1116.2</ele>
        <time>2014-07-13T10:01:43Z</time>
      </trkpt>
      <trkpt lat="42.884162" lon="-5.624127">
        <ele>1116.8</ele>
        <time>2014-07-13T10:01:54Z</time>
      </trkpt>
      <trkpt lat="42.884195" lon="-5.623902">
        <ele>1117.9</ele>
        <time>2014-07-13T10:02:05Z</time>
      </trkpt>
      <trkpt lat="42.884228" lon="-5.623675">
        <ele>1117.1</ele>
        <time>2014-07-13T10:02:20Z</time>
      </trkpt>
      <trkpt lat="42.884262" lon="-5.623455">
        <ele>1118.0</ele>
        <time>2014-07-13T10:02:32Z</time>
      </trkpt>
      <trkpt lat="42.884213" lon="-5.623217">
        <ele>1119.1</ele>
        <time>2014-07-13T10:02:46Z</time>
      </trkpt>
      <trkpt lat="42.884193" lon="-5.622945">
        <ele>1120.0</ele>
        <time>2014-07-13T10:03:02Z</time>
      </trkpt>
      <trkpt lat="42.88419" lon="-5.622727">
        <ele>1119.7</ele>
        <time>2014-07-13T10:03:15Z</time>
      </trkpt>
      <trkpt lat="42.88402" lon="-5.62247">
        <ele>1119.8</ele>
        <time>2014-07-13T10:03:31Z</time>
      </trkpt>
      <trkpt lat="42.88394" lon="-5.622275">
        <ele>1119.3</ele>
        <time>2014-07-13T10:03:44Z</time>
      </trkpt>
      <trkpt lat="42.883708" lon="-5.62208">
        <ele>1119.0</ele>
        <time>2014-07-13T10:04:00Z</time>
      </trkpt>
      <trkpt lat="42.88383" lon="-5.621833">
        <ele>1119.0</ele>
        <time>2014-07-13T10:04:12Z</time>
      </trkpt>
      <trkpt lat="42.88388" lon="-5.621682">
        <ele>1118.7</ele>
        <time>2014-07-13T10:04:19Z</time>
      </trkpt>
      <trkpt lat="42.883833" lon="-5.621465">
        <ele>1119.1</ele>
        <time>2014-07-13T10:04:35Z</time>
      </trkpt>
      <trkpt lat="42.88386" lon="-5.621258">
        <ele>1118.6</ele>
        <time>2014-07-13T10:04:45Z</time>
      </trkpt>
      <trkpt lat="42.88379" lon="-5.620982">
        <ele>1119.4</ele>
        <time>2014-07-13T10:05:00Z</time>
      </trkpt>
      <trkpt lat="42.883748" lon="-5.62075">
        <ele>1119.7</ele>
        <time>2014-07-13T10:05:16Z</time>
      </trkpt>
      <trkpt lat="42.883605" lon="-5.620613">
        <ele>1119.8</ele>
        <time>2014-07-13T10:05:26Z</time>
      </trkpt>
      <trkpt lat="42.883592" lon="-5.620453">
        <ele>1118.9</ele>
        <time>2014-07-13T10:05:37Z</time>
      </trkpt>
      <trkpt lat="42.883512" lon="-5.620325">
        <ele>1119.2</ele>
        <time>2014-07-13T10:05:48Z</time>
      </trkpt>
      <trkpt lat="42.88353" lon="-5.620027">
        <ele>1119.0</ele>
        <time>2014-07-13T10:06:05Z</time>
      </trkpt>
      <trkpt lat="42.883442" lon="-5.619773">
        <ele>1118.8</ele>
        <time>2014-07-13T10:06:18Z</time>
      </trkpt>
      <trkpt lat="42.883445" lon="-5.619467">
        <ele>1119.7</ele>
        <time>2014-07-13T10:06:34Z</time>
      </trkpt>
      <trkpt lat="42.883402" lon="-5.619277">
        <ele>1119.7</ele>
        <time>2014-07-13T10:06:48Z</time>
      </trkpt>
      <trkpt lat="42.88335" lon="-5.619032">
        <ele>1120.0</ele>
        <time>2014-07-13T10:07:04Z</time>
      </trkpt>
      <trkpt lat="42.883747" lon="-5.618883">
        <ele>1120.5</ele>
        <time>2014-07-13T10:07:22Z</time>
      </trkpt>
      <trkpt lat="42.883805" lon="-5.61887">
        <ele>1121.7</ele>
        <time>2014-07-13T10:07:26Z</time>
      </trkpt>
      <trkpt lat="42.883805" lon="-5.61887">
        <ele>1121.7</ele>
        <time>2014-07-13T10:07:31Z</time>
      </trkpt>
      <trkpt lat="42.883805" lon="-5.61887">
        <ele>1117.1</ele>
        <time>2014-07-13T10:07:48Z</time>
      </trkpt>
      <trkpt lat="42.883485" lon="-5.618992">
        <ele>1115.8</ele>
        <time>2014-07-13T10:07:48Z</time>
      </trkpt>
      <trkpt lat="42.883485" lon="-5.618992">
        <ele>1115.1</ele>
        <time>2014-07-13T10:07:56Z</time>
      </trkpt>
      <trkpt lat="42.883485" lon="-5.618992">
        <ele>1115.8</ele>
        <time>2014-07-13T10:07:56Z</time>
      </trkpt>
      <trkpt lat="42.883485" lon="-5.618992">
        <ele>1117.0</ele>
        <time>2014-07-13T10:09:22Z</time>
      </trkpt>
      <trkpt lat="42.88348" lon="-5.618688">
        <ele>1116.5</ele>
        <time>2014-07-13T10:09:22Z</time>
      </trkpt>
      <trkpt lat="42.883505" lon="-5.618503">
        <ele>1116.4</ele>
        <time>2014-07-13T10:09:32Z</time>
      </trkpt>
      <trkpt lat="42.88351" lon="-5.618243">
        <ele>1117.8</ele>
        <time>2014-07-13T10:09:46Z</time>
      </trkpt>
      <trkpt lat="42.883513" lon="-5.61813">
        <ele>1118.0</ele>
        <time>2014-07-13T10:09:55Z</time>
      </trkpt>
      <trkpt lat="42.883632" lon="-5.617892">
        <ele>1118.3</ele>
        <time>2014-07-13T10:10:12Z</time>
      </trkpt>
      <trkpt lat="42.883663" lon="-5.617705">
        <ele>1118.7</ele>
        <time>2014-07-13T10:10:24Z</time>
      </trkpt>
      <trkpt lat="42.883793" lon="-5.61755">
        <ele>1118.5</ele>
        <time>2014-07-13T10:10:35Z</time>
      </trkpt>
      <trkpt lat="42.883667" lon="-5.617347">
        <ele>1118.3</ele>
        <time>2014-07-13T10:10:49Z</time>
      </trkpt>
      <trkpt lat="42.8836" lon="-5.617248">
        <ele>1119.2</ele>
        <time>2014-07-13T10:10:56Z</time>
      </trkpt>
      <trkpt lat="42.883557" lon="-5.61709">
        <ele>1119.5</ele>
        <time>2014-07-13T10:11:08Z</time>
      </trkpt>
      <trkpt lat="42.883562" lon="-5.616898">
        <ele>1117.6</ele>
        <time>2014-07-13T10:11:21Z</time>
      </trkpt>
      <trkpt lat="42.883428" lon="-5.616605">
        <ele>1116.5</ele>
        <time>2014-07-13T10:11:36Z</time>
      </trkpt>
      <trkpt lat="42.883562" lon="-5.616532">
        <ele>1116.1</ele>
        <time>2014-07-13T10:11:51Z</time>
      </trkpt>
      <trkpt lat="42.883787" lon="-5.61641">
        <ele>1116.1</ele>
        <time>2014-07-13T10:12:12Z</time>
      </trkpt>
      <trkpt lat="42.883932" lon="-5.61655">
        <ele>1116.0</ele>
        <time>2014-07-13T10:12:24Z</time>
      </trkpt>
      <trkpt lat="42.884003" lon="-5.616723">
        <ele>1116.0</ele>
        <time>2014-07-13T10:12:38Z</time>
      </trkpt>
      <trkpt lat="42.884107" lon="-5.616868">
        <ele>1115.4</ele>
        <time>2014-07-13T10:12:55Z</time>
      </trkpt>
      <trkpt lat="42.884178" lon="-5.617025">
        <ele>1112.6</ele>
        <time>2014-07-13T10:13:08Z</time>
      </trkpt>
      <trkpt lat="42.884215" lon="-5.617275">
        <ele>1112.6</ele>
        <time>2014-07-13T10:13:26Z</time>
      </trkpt>
      <trkpt lat="42.884238" lon="-5.617403">
        <ele>1112.6</ele>
        <time>2014-07-13T10:13:37Z</time>
      </trkpt>
      <trkpt lat="42.8843" lon="-5.617492">
        <ele>1112.7</ele>
        <time>2014-07-13T10:13:47Z</time>
      </trkpt>
      <trkpt lat="42.8843" lon="-5.617492">
        <ele>1112.9</ele>
        <time>2014-07-13T10:13:56Z</time>
      </trkpt>
      <trkpt lat="42.8843" lon="-5.617492">
        <ele>1113.0</ele>
        <time>2014-07-13T10:14:06Z</time>
      </trkpt>
      <trkpt lat="42.884378" lon="-5.617432">
        <ele>1113.2</ele>
        <time>2014-07-13T10:14:06Z</time>
      </trkpt>
      <trkpt lat="42.884515" lon="-5.617142">
        <ele>1113.3</ele>
        <time>2014-07-13T10:16:04Z</time>
      </trkpt>
      <trkpt lat="42.88465" lon="-5.617022">
        <ele>1113.3</ele>
        <time>2014-07-13T10:16:20Z</time>
      </trkpt>
      <trkpt lat="42.884788" lon="-5.616938">
        <ele>1113.4</ele>
        <time>2014-07-13T10:16:32Z</time>
      </trkpt>
      <trkpt lat="42.884937" lon="-5.616895">
        <ele>1113.8</ele>
        <time>2014-07-13T10:16:45Z</time>
      </trkpt>
      <trkpt lat="42.885063" lon="-5.616732">
        <ele>1114.0</ele>
        <time>2014-07-13T10:16:59Z</time>
      </trkpt>
      <trkpt lat="42.885135" lon="-5.616518">
        <ele>1114.0</ele>
        <time>2014-07-13T10:17:13Z</time>
      </trkpt>
      <trkpt lat="42.885208" lon="-5.616342">
        <ele>1114.2</ele>
        <time>2014-07-13T10:17:28Z</time>
      </trkpt>
      <trkpt lat="42.885243" lon="-5.616282">
        <ele>1114.1</ele>
        <time>2014-07-13T10:17:34Z</time>
      </trkpt>
      <trkpt lat="42.885243" lon="-5.616282">
        <ele>1114.3</ele>
        <time>2014-07-13T10:17:41Z</time>
      </trkpt>
      <trkpt lat="42.885243" lon="-5.616282">
        <ele>1114.7</ele>
        <time>2014-07-13T10:17:47Z</time>
      </trkpt>
      <trkpt lat="42.885293" lon="-5.616205">
        <ele>1114.7</ele>
        <time>2014-07-13T10:17:47Z</time>
      </trkpt>
      <trkpt lat="42.885333" lon="-5.61604">
        <ele>1114.3</ele>
        <time>2014-07-13T10:18:02Z</time>
      </trkpt>
      <trkpt lat="42.88539" lon="-5.615748">
        <ele>1114.6</ele>
        <time>2014-07-13T10:18:24Z</time>
      </trkpt>
      <trkpt lat="42.885293" lon="-5.615448">
        <ele>1114.9</ele>
        <time>2014-07-13T10:18:44Z</time>
      </trkpt>
      <trkpt lat="42.885258" lon="-5.615313">
        <ele>1115.2</ele>
        <time>2014-07-13T10:18:56Z</time>
      </trkpt>
      <trkpt lat="42.885127" lon="-5.615187">
        <ele>1115.0</ele>
        <time>2014-07-13T10:19:14Z</time>
      </trkpt>
      <trkpt lat="42.88517" lon="-5.614778">
        <ele>1115.7</ele>
        <time>2014-07-13T10:20:00Z</time>
      </trkpt>
      <trkpt lat="42.885232" lon="-5.614538">
        <ele>1116.4</ele>
        <time>2014-07-13T10:20:18Z</time>
      </trkpt>
      <trkpt lat="42.885263" lon="-5.614323">
        <ele>1119.1</ele>
        <time>2014-07-13T10:20:39Z</time>
      </trkpt>
      <trkpt lat="42.88526" lon="-5.614117">
        <ele>1119.1</ele>
        <time>2014-07-13T10:20:56Z</time>
      </trkpt>
      <trkpt lat="42.88532" lon="-5.613758">
        <ele>1117.9</ele>
        <time>2014-07-13T10:21:14Z</time>
      </trkpt>
      <trkpt lat="42.8854" lon="-5.613537">
        <ele>1118.3</ele>
        <time>2014-07-13T10:21:32Z</time>
      </trkpt>
      <trkpt lat="42.885387" lon="-5.613313">
        <ele>1118.6</ele>
        <time>2014-07-13T10:21:46Z</time>
      </trkpt>
      <trkpt lat="42.885398" lon="-5.613103">
        <ele>1119.3</ele>
        <time>2014-07-13T10:22:00Z</time>
      </trkpt>
      <trkpt lat="42.885385" lon="-5.612967">
        <ele>1119.4</ele>
        <time>2014-07-13T10:22:13Z</time>
      </trkpt>
      <trkpt lat="42.885427" lon="-5.612768">
        <ele>1119.4</ele>
        <time>2014-07-13T10:22:28Z</time>
      </trkpt>
      <trkpt lat="42.885398" lon="-5.61253">
        <ele>1128.3</ele>
        <time>2014-07-13T10:22:49Z</time>
      </trkpt>
      <trkpt lat="42.885597" lon="-5.612292">
        <time>2014-07-13T10:23:22Z</time>
      </trkpt>
      <trkpt lat="42.885597" lon="-5.612292">
        <time>2014-07-13T10:23:28Z</time>
      </trkpt>
      <trkpt lat="42.885597" lon="-5.612292">
        <time>2014-07-13T10:23:28Z</time>
      </trkpt>
      <trkpt lat="42.885597" lon="-5.612292">
        <time>2014-07-13T10:24:10Z</time>
      </trkpt>
      <trkpt lat="42.885522" lon="-5.612057">
        <time>2014-07-13T10:24:10Z</time>
      </trkpt>
      <trkpt lat="42.885358" lon="-5.611697">
        <time>2014-07-13T10:25:40Z</time>
      </trkpt>
      <trkpt lat="42.88543" lon="-5.611588">
        <time>2014-07-13T10:25:50Z</time>
      </trkpt>
      <trkpt lat="42.885532" lon="-5.611507">
        <time>2014-07-13T10:25:58Z</time>
      </trkpt>
      <trkpt lat="42.885532" lon="-5.611507">
        <time>2014-07-13T10:26:06Z</time>
      </trkpt>
      <trkpt lat="42.885532" lon="-5.611507">
        <time>2014-07-13T10:26:18Z</time>
      </trkpt>
      <trkpt lat="42.885637" lon="-5.611547">
        <time>2014-07-13T10:26:18Z</time>
      </trkpt>
      <trkpt lat="42.885637" lon="-5.611547">
        <time>2014-07-13T10:26:26Z</time>
      </trkpt>
      <trkpt lat="42.885637" lon="-5.611547">
        <time>2014-07-13T10:26:26Z</time>
      </trkpt>
      <trkpt lat="42.885637" lon="-5.611547">
        <time>2014-07-13T10:31:08Z</time>
      </trkpt>
      <trkpt lat="42.88592" lon="-5.611327">
        <time>2014-07-13T10:31:08Z</time>
      </trkpt>
      <trkpt lat="42.88592" lon="-5.611327">
        <time>2014-07-13T10:31:08Z</time>
      </trkpt>
      <trkpt lat="42.886588" lon="-5.609443">
        <time>2014-07-13T10:43:30Z</time>
      </trkpt>
      <trkpt lat="42.886588" lon="-5.609443">
        <ele>1139.5</ele>
        <time>2014-07-13T10:43:33Z</time>
      </trkpt>
      <trkpt lat="42.88693" lon="-5.609458">
        <ele>1140.5</ele>
        <time>2014-07-13T10:44:50Z</time>
      </trkpt>
      <trkpt lat="42.88693" lon="-5.609458">
        <ele>1140.5</ele>
        <time>2014-07-13T10:44:58Z</time>
      </trkpt>
      <trkpt lat="42.88693" lon="-5.609458">
        <time>2014-07-13T10:44:58Z</time>
      </trkpt>
      <trkpt lat="42.887133" lon="-5.609365">
        <ele>1141.3</ele>
        <time>2014-07-13T10:45:16Z</time>
      </trkpt>
      <trkpt lat="42.887133" lon="-5.609365">
        <time>2014-07-13T10:45:16Z</time>
      </trkpt>
      <trkpt lat="42.887302" lon="-5.609402">
        <ele>1141.7</ele>
        <time>2014-07-13T10:45:26Z</time>
      </trkpt>
      <trkpt lat="42.887362" lon="-5.609365">
        <ele>1142.1</ele>
        <time>2014-07-13T10:45:36Z</time>
      </trkpt>
      <trkpt lat="42.887362" lon="-5.609365">
        <time>2014-07-13T10:45:44Z</time>
      </trkpt>
      <trkpt lat="42.887165" lon="-5.609143">
        <ele>1142.9</ele>
        <time>2014-07-13T10:46:12Z</time>
      </trkpt>
      <trkpt lat="42.887165" lon="-5.609143">
        <time>2014-07-13T10:46:12Z</time>
      </trkpt>
      <trkpt lat="42.88702" lon="-5.608775">
        <ele>1143</ele>
        <time>2014-07-13T10:47:06Z</time>
      </trkpt>
      <trkpt lat="42.88729" lon="-5.608557">
        <ele>1142.9</ele>
        <time>2014-07-13T10:48:18Z</time>
      </trkpt>
      <trkpt lat="42.886975" lon="-5.608493">
        <ele>1143.1</ele>
        <time>2014-07-13T10:49:40Z</time>
      </trkpt>
      <trkpt lat="42.886975" lon="-5.608493">
        <ele>1143.1</ele>
        <time>2014-07-13T10:51:40Z</time>
      </trkpt>
      <trkpt lat="42.886987" lon="-5.608198">
        <ele>1150.1</ele>
        <time>2014-07-13T10:53:32Z</time>
      </trkpt>
      <trkpt lat="42.886732" lon="-5.60821">
        <ele>1158.4</ele>
        <time>2014-07-13T10:55:13Z</time>
      </trkpt>
      <trkpt lat="42.886648" lon="-5.608397">
        <ele>1157.9</ele>
        <time>2014-07-13T10:55:28Z</time>
      </trkpt>
      <trkpt lat="42.886592" lon="-5.608482">
        <ele>1157.9</ele>
        <time>2014-07-13T10:55:37Z</time>
      </trkpt>
      <trkpt lat="42.886592" lon="-5.608482">
        <time>2014-07-13T10:55:46Z</time>
      </trkpt>
      <trkpt lat="42.887013" lon="-5.608555">
        <ele>1157.9</ele>
        <time>2014-07-13T10:56:48Z</time>
      </trkpt>
      <trkpt lat="42.887013" lon="-5.608555">
        <time>2014-07-13T10:56:48Z</time>
      </trkpt>
      <trkpt lat="42.8872" lon="-5.60864">
        <ele>1157.8</ele>
        <time>2014-07-13T10:56:56Z</time>
      </trkpt>
      <trkpt lat="42.887087" lon="-5.608617">
        <ele>1157.8</ele>
        <time>2014-07-13T10:57:07Z</time>
      </trkpt>
      <trkpt lat="42.887087" lon="-5.608617">
        <ele>1157.8</ele>
        <time>2014-07-13T10:57:14Z</time>
      </trkpt>
      <trkpt lat="42.887087" lon="-5.608617">
        <time>2014-07-13T10:57:14Z</time>
      </trkpt>
      <trkpt lat="42.88673" lon="-5.608733">
        <ele>1157.7</ele>
        <time>2014-07-13T10:58:02Z</time>
      </trkpt>
      <trkpt lat="42.88673" lon="-5.608733">
        <time>2014-07-13T10:58:02Z</time>
      </trkpt>
      <trkpt lat="42.88673" lon="-5.608733">
        <ele>1157.7</ele>
        <time>2014-07-13T10:58:11Z</time>
      </trkpt>
      <trkpt lat="42.88673" lon="-5.608733">
        <time>2014-07-13T10:58:11Z</time>
      </trkpt>
      <trkpt lat="42.887035" lon="-5.608552">
        <ele>1157.3</ele>
        <time>2014-07-13T10:58:30Z</time>
      </trkpt>
      <trkpt lat="42.887035" lon="-5.608552">
        <time>2014-07-13T10:58:30Z</time>
      </trkpt>
      <trkpt lat="42.88718" lon="-5.608577">
        <ele>1157.3</ele>
        <time>2014-07-13T10:58:42Z</time>
      </trkpt>
      <trkpt lat="42.88718" lon="-5.608577">
        <time>2014-07-13T10:58:50Z</time>
      </trkpt>
      <trkpt lat="42.88689" lon="-5.608892">
        <ele>1156.8</ele>
        <time>2014-07-13T11:00:00Z</time>
      </trkpt>
      <trkpt lat="42.88689" lon="-5.608892">
        <time>2014-07-13T11:00:00Z</time>
      </trkpt>
      <trkpt lat="42.886827" lon="-5.608942">
        <ele>1156.7</ele>
        <time>2014-07-13T11:00:04Z</time>
      </trkpt>
      <trkpt lat="42.886827" lon="-5.608942">
        <time>2014-07-13T11:00:12Z</time>
      </trkpt>
      <trkpt lat="42.886827" lon="-5.608942">
        <time>2014-07-13T11:01:10Z</time>
      </trkpt>
      <trkpt lat="42.886168" lon="-5.61059">
        <ele>1154.7</ele>
        <time>2014-07-13T11:06:22Z</time>
      </trkpt>
      <trkpt lat="42.886168" lon="-5.61059">
        <ele>1154.7</ele>
        <time>2014-07-13T11:08:26Z</time>
      </trkpt>
      <trkpt lat="42.885927" lon="-5.610602">
        <ele>1153.1</ele>
        <time>2014-07-13T11:08:46Z</time>
      </trkpt>
      <trkpt lat="42.88586" lon="-5.611087">
        <ele>1151.7</ele>
        <time>2014-07-13T11:09:54Z</time>
      </trkpt>
      <trkpt lat="42.885765" lon="-5.611287">
        <ele>1151.6</ele>
        <time>2014-07-13T11:10:14Z</time>
      </trkpt>
      <trkpt lat="42.88564" lon="-5.611282">
        <ele>1151.4</ele>
        <time>2014-07-13T11:10:28Z</time>
      </trkpt>
      <trkpt lat="42.88551" lon="-5.611335">
        <ele>1151.2</ele>
        <time>2014-07-13T11:10:44Z</time>
      </trkpt>
      <trkpt lat="42.88551" lon="-5.611335">
        <ele>1151.2</ele>
        <time>2014-07-13T11:13:20Z</time>
      </trkpt>
      <trkpt lat="42.88561" lon="-5.611587">
        <ele>1139.7</ele>
        <time>2014-07-13T11:20:50Z</time>
      </trkpt>
      <trkpt lat="42.88561" lon="-5.611587">
        <ele>1139.7</ele>
        <time>2014-07-13T11:20:58Z</time>
      </trkpt>
      <trkpt lat="42.88561" lon="-5.611587">
        <time>2014-07-13T11:20:58Z</time>
      </trkpt>
      <trkpt lat="42.88561" lon="-5.611587">
        <time>2014-07-13T11:22:59Z</time>
      </trkpt>
      <trkpt lat="42.885452" lon="-5.611857">
        <ele>1130.5</ele>
        <time>2014-07-13T11:23:16Z</time>
      </trkpt>
      <trkpt lat="42.885393" lon="-5.61183">
        <ele>1125.7</ele>
        <time>2014-07-13T11:23:20Z</time>
      </trkpt>
      <trkpt lat="42.885393" lon="-5.61183">
        <time>2014-07-13T11:23:28Z</time>
      </trkpt>
      <trkpt lat="42.885337" lon="-5.612297">
        <ele>1115.3</ele>
        <time>2014-07-13T11:24:28Z</time>
      </trkpt>
      <trkpt lat="42.885337" lon="-5.612297">
        <time>2014-07-13T11:24:28Z</time>
      </trkpt>
      <trkpt lat="42.885292" lon="-5.612505">
        <ele>1114.1</ele>
        <time>2014-07-13T11:24:42Z</time>
      </trkpt>
      <trkpt lat="42.885268" lon="-5.612653">
        <ele>1112.3</ele>
        <time>2014-07-13T11:24:50Z</time>
      </trkpt>
      <trkpt lat="42.885233" lon="-5.612865">
        <ele>1124.8</ele>
        <time>2014-07-13T11:25:07Z</time>
      </trkpt>
      <trkpt lat="42.885197" lon="-5.613082">
        <ele>1125.5</ele>
        <time>2014-07-13T11:25:16Z</time>
      </trkpt>
      <trkpt lat="42.885162" lon="-5.61331">
        <ele>1125.4</ele>
        <time>2014-07-13T11:25:28Z</time>
      </trkpt>
      <trkpt lat="42.885157" lon="-5.613362">
        <ele>1124.7</ele>
        <time>2014-07-13T11:25:32Z</time>
      </trkpt>
      <trkpt lat="42.885157" lon="-5.613362">
        <time>2014-07-13T11:25:41Z</time>
      </trkpt>
      <trkpt lat="42.885187" lon="-5.613448">
        <ele>1122.5</ele>
        <time>2014-07-13T11:25:51Z</time>
      </trkpt>
      <trkpt lat="42.885187" lon="-5.613448">
        <time>2014-07-13T11:25:51Z</time>
      </trkpt>
      <trkpt lat="42.885127" lon="-5.613625">
        <ele>1119.9</ele>
        <time>2014-07-13T11:25:59Z</time>
      </trkpt>
      <trkpt lat="42.885117" lon="-5.61371">
        <ele>1119.1</ele>
        <time>2014-07-13T11:26:04Z</time>
      </trkpt>
      <trkpt lat="42.885117" lon="-5.61371">
        <time>2014-07-13T11:26:12Z</time>
      </trkpt>
      <trkpt lat="42.885117" lon="-5.61371">
        <time>2014-07-13T11:26:48Z</time>
      </trkpt>
      <trkpt lat="42.885122" lon="-5.614115">
        <ele>1125.6</ele>
        <time>2014-07-13T11:26:48Z</time>
      </trkpt>
      <trkpt lat="42.88508" lon="-5.614318">
        <ele>1125.3</ele>
        <time>2014-07-13T11:27:02Z</time>
      </trkpt>
      <trkpt lat="42.88506" lon="-5.614562">
        <ele>1123</ele>
        <time>2014-07-13T11:27:20Z</time>
      </trkpt>
      <trkpt lat="42.885082" lon="-5.614872">
        <ele>1121.9</ele>
        <time>2014-07-13T11:27:44Z</time>
      </trkpt>
      <trkpt lat="42.885032" lon="-5.615127">
        <ele>1121.6</ele>
        <time>2014-07-13T11:27:58Z</time>
      </trkpt>
      <trkpt lat="42.885037" lon="-5.615345">
        <ele>1119.6</ele>
        <time>2014-07-13T11:28:12Z</time>
      </trkpt>
      <trkpt lat="42.885088" lon="-5.615517">
        <ele>1117.9</ele>
        <time>2014-07-13T11:28:25Z</time>
      </trkpt>
      <trkpt lat="42.885117" lon="-5.615823">
        <ele>1113.5</ele>
        <time>2014-07-13T11:28:46Z</time>
      </trkpt>
      <trkpt lat="42.885085" lon="-5.616062">
        <ele>1112.3</ele>
        <time>2014-07-13T11:29:04Z</time>
      </trkpt>
      <trkpt lat="42.885058" lon="-5.616253">
        <ele>1112.7</ele>
        <time>2014-07-13T11:29:17Z</time>
      </trkpt>
      <trkpt lat="42.885032" lon="-5.616482">
        <ele>1111.3</ele>
        <time>2014-07-13T11:29:38Z</time>
      </trkpt>
      <trkpt lat="42.885" lon="-5.616598">
        <ele>1110.7</ele>
        <time>2014-07-13T11:29:47Z</time>
      </trkpt>
      <trkpt lat="42.884923" lon="-5.616752">
        <ele>1109.9</ele>
        <time>2014-07-13T11:30:01Z</time>
      </trkpt>
      <trkpt lat="42.884847" lon="-5.616958">
        <ele>1110.4</ele>
        <time>2014-07-13T11:30:18Z</time>
      </trkpt>
      <trkpt lat="42.88455" lon="-5.617025">
        <ele>1108</ele>
        <time>2014-07-13T11:31:08Z</time>
      </trkpt>
      <trkpt lat="42.884403" lon="-5.61713">
        <ele>1104.8</ele>
        <time>2014-07-13T11:31:27Z</time>
      </trkpt>
      <trkpt lat="42.884428" lon="-5.617422">
        <ele>1104.5</ele>
        <time>2014-07-13T11:31:47Z</time>
      </trkpt>
      <trkpt lat="42.884438" lon="-5.617665">
        <ele>1104.5</ele>
        <time>2014-07-13T11:32:04Z</time>
      </trkpt>
      <trkpt lat="42.88441" lon="-5.617717">
        <ele>1104.7</ele>
        <time>2014-07-13T11:32:13Z</time>
      </trkpt>
      <trkpt lat="42.88441" lon="-5.617717">
        <time>2014-07-13T11:32:20Z</time>
      </trkpt>
      <trkpt lat="42.88441" lon="-5.617717">
        <time>2014-07-13T11:35:49Z</time>
      </trkpt>
      <trkpt lat="42.884372" lon="-5.617512">
        <ele>1099.2</ele>
        <time>2014-07-13T11:35:49Z</time>
      </trkpt>
      <trkpt lat="42.884228" lon="-5.617148">
        <ele>1099.4</ele>
        <time>2014-07-13T11:36:34Z</time>
      </trkpt>
      <trkpt lat="42.884207" lon="-5.617022">
        <ele>1099.3</ele>
        <time>2014-07-13T11:36:47Z</time>
      </trkpt>
      <trkpt lat="42.884207" lon="-5.617022">
        <ele>1099.3</ele>
        <time>2014-07-13T11:36:52Z</time>
      </trkpt>
      <trkpt lat="42.884207" lon="-5.617022">
        <time>2014-07-13T11:36:52Z</time>
      </trkpt>
      <trkpt lat="42.884207" lon="-5.617022">
        <time>2014-07-13T11:36:58Z</time>
      </trkpt>
      <trkpt lat="42.884152" lon="-5.616935">
        <ele>1099.4</ele>
        <time>2014-07-13T11:36:58Z</time>
      </trkpt>
      <trkpt lat="42.884058" lon="-5.616827">
        <ele>1099.6</ele>
        <time>2014-07-13T11:37:10Z</time>
      </trkpt>
      <trkpt lat="42.883913" lon="-5.616625">
        <ele>1099.4</ele>
        <time>2014-07-13T11:37:28Z</time>
      </trkpt>
      <trkpt lat="42.883745" lon="-5.616475">
        <ele>1099.4</ele>
        <time>2014-07-13T11:37:44Z</time>
      </trkpt>
      <trkpt lat="42.883593" lon="-5.616552">
        <ele>1101</ele>
        <time>2014-07-13T11:38:02Z</time>
      </trkpt>
      <trkpt lat="42.883415" lon="-5.616798">
        <ele>1106.2</ele>
        <time>2014-07-13T11:38:24Z</time>
      </trkpt>
      <trkpt lat="42.88344" lon="-5.617003">
        <ele>1110.6</ele>
        <time>2014-07-13T11:38:42Z</time>
      </trkpt>
      <trkpt lat="42.883518" lon="-5.617177">
        <ele>1113</ele>
        <time>2014-07-13T11:38:58Z</time>
      </trkpt>
      <trkpt lat="42.883628" lon="-5.617395">
        <ele>1115.9</ele>
        <time>2014-07-13T11:39:14Z</time>
      </trkpt>
      <trkpt lat="42.883628" lon="-5.617395">
        <ele>1115.9</ele>
        <time>2014-07-13T11:39:22Z</time>
      </trkpt>
      <trkpt lat="42.883628" lon="-5.617395">
        <time>2014-07-13T11:39:22Z</time>
      </trkpt>
      <trkpt lat="42.883628" lon="-5.617395">
        <time>2014-07-13T11:40:04Z</time>
      </trkpt>
      <trkpt lat="42.883555" lon="-5.617822">
        <ele>1119.8</ele>
        <time>2014-07-13T11:40:04Z</time>
      </trkpt>
      <trkpt lat="42.883578" lon="-5.618057">
        <ele>1119.9</ele>
        <time>2014-07-13T11:40:22Z</time>
      </trkpt>
      <trkpt lat="42.88353" lon="-5.618243">
        <ele>1119.3</ele>
        <time>2014-07-13T11:40:37Z</time>
      </trkpt>
      <trkpt lat="42.883467" lon="-5.618492">
        <ele>1118.9</ele>
        <time>2014-07-13T11:40:54Z</time>
      </trkpt>
      <trkpt lat="42.883552" lon="-5.618715">
        <ele>1118</ele>
        <time>2014-07-13T11:41:10Z</time>
      </trkpt>
      <trkpt lat="42.883537" lon="-5.618975">
        <ele>1117.9</ele>
        <time>2014-07-13T11:41:30Z</time>
      </trkpt>
      <trkpt lat="42.883465" lon="-5.619225">
        <ele>1117.1</ele>
        <time>2014-07-13T11:41:48Z</time>
      </trkpt>
      <trkpt lat="42.883402" lon="-5.619378">
        <ele>1115</ele>
        <time>2014-07-13T11:42:02Z</time>
      </trkpt>
      <trkpt lat="42.883463" lon="-5.61962">
        <ele>1113.3</ele>
        <time>2014-07-13T11:42:22Z</time>
      </trkpt>
      <trkpt lat="42.883533" lon="-5.61979">
        <ele>1112</ele>
        <time>2014-07-13T11:42:38Z</time>
      </trkpt>
      <trkpt lat="42.883583" lon="-5.61993">
        <ele>1111.3</ele>
        <time>2014-07-13T11:42:50Z</time>
      </trkpt>
      <trkpt lat="42.88366" lon="-5.620138">
        <ele>1110.3</ele>
        <time>2014-07-13T11:43:06Z</time>
      </trkpt>
      <trkpt lat="42.883723" lon="-5.620257">
        <ele>1110.1</ele>
        <time>2014-07-13T11:43:16Z</time>
      </trkpt>
      <trkpt lat="42.883713" lon="-5.620403">
        <ele>1109.6</ele>
        <time>2014-07-13T11:43:30Z</time>
      </trkpt>
      <trkpt lat="42.88376" lon="-5.620615">
        <ele>1108.7</ele>
        <time>2014-07-13T11:43:46Z</time>
      </trkpt>
      <trkpt lat="42.883825" lon="-5.620867">
        <ele>1107.2</ele>
        <time>2014-07-13T11:44:06Z</time>
      </trkpt>
      <trkpt lat="42.883912" lon="-5.62111">
        <ele>1106.2</ele>
        <time>2014-07-13T11:44:24Z</time>
      </trkpt>
      <trkpt lat="42.88387" lon="-5.621307">
        <ele>1105.7</ele>
        <time>2014-07-13T11:44:38Z</time>
      </trkpt>
      <trkpt lat="42.883855" lon="-5.621532">
        <ele>1104.1</ele>
        <time>2014-07-13T11:44:56Z</time>
      </trkpt>
      <trkpt lat="42.883887" lon="-5.62173">
        <ele>1103</ele>
        <time>2014-07-13T11:45:10Z</time>
      </trkpt>
      <trkpt lat="42.88396" lon="-5.62191">
        <ele>1101</ele>
        <time>2014-07-13T11:45:28Z</time>
      </trkpt>
      <trkpt lat="42.884055" lon="-5.622047">
        <ele>1100</ele>
        <time>2014-07-13T11:45:40Z</time>
      </trkpt>
      <trkpt lat="42.884143" lon="-5.622287">
        <ele>1098.9</ele>
        <time>2014-07-13T11:45:58Z</time>
      </trkpt>
      <trkpt lat="42.884198" lon="-5.622533">
        <ele>1098.9</ele>
        <time>2014-07-13T11:46:12Z</time>
      </trkpt>
      <trkpt lat="42.884213" lon="-5.622702">
        <ele>1098.5</ele>
        <time>2014-07-13T11:46:22Z</time>
      </trkpt>
      <trkpt lat="42.884283" lon="-5.622968">
        <ele>1097.4</ele>
        <time>2014-07-13T11:46:42Z</time>
      </trkpt>
      <trkpt lat="42.884357" lon="-5.623252">
        <ele>1096.8</ele>
        <time>2014-07-13T11:47:00Z</time>
      </trkpt>
      <trkpt lat="42.884367" lon="-5.62344">
        <ele>1095.9</ele>
        <time>2014-07-13T11:47:14Z</time>
      </trkpt>
      <trkpt lat="42.884338" lon="-5.62362">
        <ele>1095.4</ele>
        <time>2014-07-13T11:47:24Z</time>
      </trkpt>
      <trkpt lat="42.884313" lon="-5.623873">
        <ele>1094.4</ele>
        <time>2014-07-13T11:47:40Z</time>
      </trkpt>
      <trkpt lat="42.884312" lon="-5.624065">
        <ele>1093.9</ele>
        <time>2014-07-13T11:47:54Z</time>
      </trkpt>
      <trkpt lat="42.884315" lon="-5.62424">
        <ele>1093.5</ele>
        <time>2014-07-13T11:48:06Z</time>
      </trkpt>
      <trkpt lat="42.884253" lon="-5.62451">
        <ele>1093.5</ele>
        <time>2014-07-13T11:48:24Z</time>
      </trkpt>
      <trkpt lat="42.884145" lon="-5.624915">
        <ele>1092</ele>
        <time>2014-07-13T11:48:58Z</time>
      </trkpt>
      <trkpt lat="42.884118" lon="-5.625065">
        <ele>1091.1</ele>
        <time>2014-07-13T11:49:12Z</time>
      </trkpt>
      <trkpt lat="42.884108" lon="-5.625282">
        <ele>1089.9</ele>
        <time>2014-07-13T11:49:28Z</time>
      </trkpt>
      <trkpt lat="42.884092" lon="-5.625448">
        <ele>1089.3</ele>
        <time>2014-07-13T11:49:38Z</time>
      </trkpt>
      <trkpt lat="42.884077" lon="-5.62571">
        <ele>1088.3</ele>
        <time>2014-07-13T11:49:52Z</time>
      </trkpt>
      <trkpt lat="42.88406" lon="-5.625922">
        <ele>1087</ele>
        <time>2014-07-13T11:50:08Z</time>
      </trkpt>
      <trkpt lat="42.884115" lon="-5.626235">
        <ele>1084.8</ele>
        <time>2014-07-13T11:50:26Z</time>
      </trkpt>
      <trkpt lat="42.884103" lon="-5.626573">
        <ele>1082.9</ele>
        <time>2014-07-13T11:50:44Z</time>
      </trkpt>
      <trkpt lat="42.884055" lon="-5.626772">
        <ele>1081.6</ele>
        <time>2014-07-13T11:50:58Z</time>
      </trkpt>
      <trkpt lat="42.883973" lon="-5.627005">
        <ele>1080.5</ele>
        <time>2014-07-13T11:51:14Z</time>
      </trkpt>
      <trkpt lat="42.883945" lon="-5.627247">
        <ele>1079</ele>
        <time>2014-07-13T11:51:30Z</time>
      </trkpt>
      <trkpt lat="42.883942" lon="-5.627433">
        <ele>1077.7</ele>
        <time>2014-07-13T11:51:42Z</time>
      </trkpt>
      <trkpt lat="42.883948" lon="-5.627725">
        <ele>1076.5</ele>
        <time>2014-07-13T11:52:00Z</time>
      </trkpt>
      <trkpt lat="42.88395" lon="-5.62797">
        <ele>1075.5</ele>
        <time>2014-07-13T11:52:14Z</time>
      </trkpt>
      <trkpt lat="42.883957" lon="-5.628122">
        <ele>1075.2</ele>
        <time>2014-07-13T11:52:28Z</time>
      </trkpt>
      <trkpt lat="42.88395" lon="-5.628445">
        <ele>1073.1</ele>
        <time>2014-07-13T11:52:54Z</time>
      </trkpt>
      <trkpt lat="42.883955" lon="-5.628562">
        <ele>1072.9</ele>
        <time>2014-07-13T11:53:01Z</time>
      </trkpt>
      <trkpt lat="42.884" lon="-5.628865">
        <ele>1072.2</ele>
        <time>2014-07-13T11:53:18Z</time>
      </trkpt>
      <trkpt lat="42.884047" lon="-5.629062">
        <ele>1071</ele>
        <time>2014-07-13T11:53:32Z</time>
      </trkpt>
      <trkpt lat="42.884057" lon="-5.629327">
        <ele>1069.8</ele>
        <time>2014-07-13T11:53:50Z</time>
      </trkpt>
      <trkpt lat="42.884075" lon="-5.629623">
        <ele>1068.9</ele>
        <time>2014-07-13T11:54:10Z</time>
      </trkpt>
      <trkpt lat="42.884083" lon="-5.629955">
        <ele>1068.3</ele>
        <time>2014-07-13T11:54:28Z</time>
      </trkpt>
      <trkpt lat="42.88409" lon="-5.630177">
        <ele>1067</ele>
        <time>2014-07-13T11:54:42Z</time>
      </trkpt>
      <trkpt lat="42.884087" lon="-5.630318">
        <ele>1066.4</ele>
        <time>2014-07-13T11:54:52Z</time>
      </trkpt>
      <trkpt lat="42.884123" lon="-5.630588">
        <ele>1065.3</ele>
        <time>2014-07-13T11:55:08Z</time>
      </trkpt>
      <trkpt lat="42.884173" lon="-5.6308">
        <ele>1065.4</ele>
        <time>2014-07-13T11:55:22Z</time>
      </trkpt>
      <trkpt lat="42.884233" lon="-5.631023">
        <ele>1064.7</ele>
        <time>2014-07-13T11:55:36Z</time>
      </trkpt>
      <trkpt lat="42.884263" lon="-5.63126">
        <ele>1063.4</ele>
        <time>2014-07-13T11:55:50Z</time>
      </trkpt>
      <trkpt lat="42.884287" lon="-5.631472">
        <ele>1063.2</ele>
        <time>2014-07-13T11:56:02Z</time>
      </trkpt>
      <trkpt lat="42.884287" lon="-5.631472">
        <time>2014-07-13T11:56:10Z</time>
      </trkpt>
      <trkpt lat="42.884287" lon="-5.631472">
        <time>2014-07-13T11:56:20Z</time>
      </trkpt>
      <trkpt lat="42.884327" lon="-5.631563">
        <ele>1064.3</ele>
        <time>2014-07-13T11:56:20Z</time>
      </trkpt>
      <trkpt lat="42.884337" lon="-5.631813">
        <ele>1064.3</ele>
        <time>2014-07-13T11:56:34Z</time>
      </trkpt>
      <trkpt lat="42.884317" lon="-5.632043">
        <ele>1064.4</ele>
        <time>2014-07-13T11:56:48Z</time>
      </trkpt>
      <trkpt lat="42.884253" lon="-5.632172">
        <ele>1064.6</ele>
        <time>2014-07-13T11:56:58Z</time>
      </trkpt>
      <trkpt lat="42.884257" lon="-5.63242">
        <ele>1064.3</ele>
        <time>2014-07-13T11:57:14Z</time>
      </trkpt>
      <trkpt lat="42.884298" lon="-5.632698">
        <ele>1064.3</ele>
        <time>2014-07-13T11:57:30Z</time>
      </trkpt>
      <trkpt lat="42.884332" lon="-5.632822">
        <ele>1064.3</ele>
        <time>2014-07-13T11:57:40Z</time>
      </trkpt>
      <trkpt lat="42.884347" lon="-5.632967">
        <ele>1064.2</ele>
        <time>2014-07-13T11:57:50Z</time>
      </trkpt>
      <trkpt lat="42.884393" lon="-5.633318">
        <ele>1063.7</ele>
        <time>2014-07-13T11:58:08Z</time>
      </trkpt>
      <trkpt lat="42.884403" lon="-5.63348">
        <ele>1063.3</ele>
        <time>2014-07-13T11:58:20Z</time>
      </trkpt>
      <trkpt lat="42.884348" lon="-5.633703">
        <ele>1063.3</ele>
        <time>2014-07-13T11:58:35Z</time>
      </trkpt>
      <trkpt lat="42.88434" lon="-5.633977">
        <ele>1063</ele>
        <time>2014-07-13T11:58:52Z</time>
      </trkpt>
      <trkpt lat="42.884303" lon="-5.634177">
        <ele>1062.5</ele>
        <time>2014-07-13T11:59:05Z</time>
      </trkpt>
      <trkpt lat="42.88422" lon="-5.634433">
        <ele>1061.4</ele>
        <time>2014-07-13T11:59:24Z</time>
      </trkpt>
      <trkpt lat="42.884118" lon="-5.634632">
        <ele>1060.6</ele>
        <time>2014-07-13T11:59:42Z</time>
      </trkpt>
      <trkpt lat="42.884053" lon="-5.634828">
        <ele>1059.7</ele>
        <time>2014-07-13T11:59:58Z</time>
      </trkpt>
      <trkpt lat="42.883932" lon="-5.635055">
        <ele>1058.7</ele>
        <time>2014-07-13T12:00:17Z</time>
      </trkpt>
      <trkpt lat="42.883912" lon="-5.635352">
        <ele>1057.9</ele>
        <time>2014-07-13T12:00:36Z</time>
      </trkpt>
      <trkpt lat="42.883865" lon="-5.635517">
        <ele>1057.1</ele>
        <time>2014-07-13T12:00:49Z</time>
      </trkpt>
      <trkpt lat="42.883833" lon="-5.635708">
        <ele>1055.5</ele>
        <time>2014-07-13T12:01:06Z</time>
      </trkpt>
      <trkpt lat="42.883872" lon="-5.635927">
        <ele>1054.1</ele>
        <time>2014-07-13T12:01:26Z</time>
      </trkpt>
      <trkpt lat="42.883992" lon="-5.636233">
        <ele>1052.5</ele>
        <time>2014-07-13T12:01:44Z</time>
      </trkpt>
      <trkpt lat="42.884082" lon="-5.636453">
        <ele>1052.1</ele>
        <time>2014-07-13T12:01:56Z</time>
      </trkpt>
      <trkpt lat="42.884215" lon="-5.636585">
        <ele>1050.7</ele>
        <time>2014-07-13T12:02:12Z</time>
      </trkpt>
      <trkpt lat="42.884215" lon="-5.636585">
        <time>2014-07-13T12:02:15Z</time>
      </trkpt>
      <trkpt lat="42.884215" lon="-5.636585">
        <time>2014-07-13T12:02:16Z</time>
      </trkpt>
    </trkseg>
  </trk>
</gpx>
